createdAt,value
2018-09-20T00:00:42.216Z,3.47
2018-09-20T00:03:17.115Z,3.43
2018-09-20T00:05:51.300Z,3.00
2018-09-20T00:08:26.700Z,3.60
2018-09-20T00:11:01.688Z,3.70
2018-09-20T00:13:35.749Z,3.93
2018-09-20T00:16:09.920Z,3.73
2018-09-20T00:18:44.428Z,3.93
2018-09-20T00:21:18.753Z,3.33
2018-09-20T00:23:52.648Z,3.73
2018-09-20T00:26:27.816Z,3.70
2018-09-20T00:29:02.412Z,3.63
2018-09-20T00:31:36.631Z,3.80
2018-09-20T00:34:10.830Z,3.00
2018-09-20T00:36:45.512Z,3.50
2018-09-20T00:39:21.279Z,3.83
2018-09-20T00:41:55.645Z,3.80
2018-09-20T00:44:29.562Z,3.70
2018-09-20T00:47:03.678Z,3.60
2018-09-20T00:49:37.648Z,3.47
2018-09-20T00:52:12.605Z,3.60
2018-09-20T00:54:46.679Z,3.30
2018-09-20T00:57:22.010Z,2.80
2018-09-20T00:59:56.576Z,3.47
2018-09-20T01:02:31.960Z,3.40
2018-09-20T01:05:06.049Z,3.70
2018-09-20T01:07:39.943Z,3.57
2018-09-20T01:10:13.981Z,3.20
2018-09-20T01:12:47.816Z,3.67
2018-09-20T01:15:21.930Z,3.80
2018-09-20T01:17:55.779Z,3.53
2018-09-20T01:20:29.814Z,3.20
2018-09-20T01:23:05.093Z,3.37
2018-09-20T01:25:38.910Z,3.43
2018-09-20T01:28:14.761Z,3.30
2018-09-20T01:30:48.965Z,3.20
2018-09-20T01:33:24.473Z,3.37
2018-09-20T01:35:59.444Z,3.63
2018-09-20T01:38:34.326Z,3.50
2018-09-20T01:41:09.024Z,4.00
2018-09-20T01:43:43.072Z,3.50
2018-09-20T01:46:17.321Z,3.27
2018-09-20T01:48:51.466Z,3.80
2018-09-20T01:51:25.479Z,3.40
2018-09-20T01:54:00.443Z,3.10
2018-09-20T01:56:34.816Z,3.70
2018-09-20T01:59:09.142Z,3.70
2018-09-20T02:01:43.304Z,3.20
2018-09-20T02:04:17.419Z,3.20
2018-09-20T02:06:51.872Z,3.90
2018-09-20T02:09:25.991Z,3.63
2018-09-20T02:12:00.070Z,3.50
2018-09-20T02:14:34.799Z,3.70
2018-09-20T02:17:08.705Z,3.97
2018-09-20T02:19:42.681Z,3.53
2018-09-20T02:22:16.748Z,3.80
2018-09-20T02:24:51.667Z,3.57
2018-09-20T02:27:25.752Z,3.60
2018-09-20T02:30:00.180Z,3.67
2018-09-20T02:32:34.241Z,3.30
2018-09-20T02:35:08.580Z,3.47
2018-09-20T02:37:43.454Z,3.37
2018-09-20T02:40:18.234Z,3.67
2018-09-20T02:42:52.286Z,3.40
2018-09-20T02:45:26.335Z,3.87
2018-09-20T02:48:00.514Z,3.13
2018-09-20T02:50:35.381Z,3.70
2018-09-20T02:53:09.441Z,3.40
2018-09-20T02:55:43.302Z,3.90
2018-09-20T02:58:17.167Z,3.40
2018-09-20T03:00:53.222Z,4.07
2018-09-20T03:03:28.565Z,3.23
2018-09-20T03:06:03.323Z,3.33
2018-09-20T03:08:37.497Z,4.10
2018-09-20T03:11:11.554Z,3.77
2018-09-20T03:13:45.784Z,3.63
2018-09-20T03:16:19.861Z,3.83
2018-09-20T03:18:53.965Z,3.37
2018-09-20T03:21:29.048Z,3.60
2018-09-20T03:24:03.298Z,3.43
2018-09-20T03:26:37.458Z,3.77
2018-09-20T03:29:12.080Z,3.70
2018-09-20T03:31:46.842Z,3.27
2018-09-20T03:34:21.561Z,3.40
2018-09-20T03:36:56.773Z,3.23
2018-09-20T03:39:31.026Z,3.77
2018-09-20T03:42:05.114Z,4.03
2018-09-20T03:44:39.050Z,3.60
2018-09-20T03:47:14.069Z,3.50
2018-09-20T03:49:48.123Z,3.03
2018-09-20T03:52:22.989Z,2.83
2018-09-20T03:54:57.944Z,3.20
2018-09-20T03:57:32.050Z,3.47
2018-09-20T04:00:06.452Z,3.60
2018-09-20T04:02:40.720Z,3.83
2018-09-20T04:05:15.753Z,3.40
2018-09-20T04:07:51.101Z,3.17
2018-09-20T04:10:25.161Z,3.87
2018-09-20T04:12:59.133Z,3.87
2018-09-20T04:15:33.249Z,3.43
2018-09-20T04:18:07.543Z,3.63
2018-09-20T04:20:41.860Z,3.57
2018-09-20T04:23:15.961Z,3.17
2018-09-20T04:25:50.732Z,3.13
2018-09-20T04:28:24.682Z,3.30
2018-09-20T04:30:59.206Z,3.33
2018-09-20T04:33:34.138Z,3.33
2018-09-20T04:36:08.021Z,3.10
2018-09-20T04:38:42.679Z,3.63
2018-09-20T04:41:16.957Z,3.90
2018-09-20T04:43:51.165Z,4.00
2018-09-20T04:46:25.284Z,3.43
2018-09-20T04:48:59.813Z,3.40
2018-09-20T04:51:40.169Z,3.63
2018-09-20T04:54:15.454Z,3.93
2018-09-20T04:56:49.899Z,3.70
2018-09-20T04:59:24.010Z,2.90
2018-09-20T05:01:59.183Z,3.33
2018-09-20T05:04:33.167Z,3.23
2018-09-20T05:07:07.315Z,3.50
2018-09-20T05:09:42.438Z,3.20
2018-09-20T05:12:17.165Z,3.50
2018-09-20T05:14:52.350Z,3.43
2018-09-20T05:17:26.462Z,3.50
2018-09-20T05:20:00.260Z,3.27
2018-09-20T05:22:34.556Z,3.10
2018-09-20T05:25:09.021Z,3.33
2018-09-20T05:27:44.037Z,3.73
2018-09-20T05:30:17.804Z,2.90
2018-09-20T05:32:52.011Z,3.50
2018-09-20T05:35:26.090Z,3.30
2018-09-20T05:38:00.367Z,3.33
2018-09-20T05:40:36.266Z,2.63
2018-09-20T05:43:10.327Z,3.43
2018-09-20T05:45:44.170Z,3.43
2018-09-20T05:48:18.325Z,3.40
2018-09-20T05:50:52.956Z,3.63
2018-09-20T05:53:26.888Z,3.13
2018-09-20T05:56:01.470Z,2.97
2018-09-20T05:58:35.426Z,3.20
2018-09-20T06:01:09.983Z,2.80
2018-09-20T06:03:44.190Z,2.63
2018-09-20T06:06:18.726Z,3.23
2018-09-20T06:08:52.745Z,3.00
2018-09-20T06:11:27.918Z,2.77
2018-09-20T06:14:02.975Z,2.97
2018-09-20T06:16:37.838Z,2.73
2018-09-20T06:19:12.516Z,3.03
2018-09-20T06:21:46.724Z,2.90
2018-09-20T06:24:20.628Z,2.70
2018-09-20T06:26:54.680Z,2.60
2018-09-20T06:29:29.121Z,2.70
2018-09-20T06:32:04.252Z,2.67
2018-09-20T06:34:38.327Z,2.57
2018-09-20T06:37:13.496Z,3.03
2018-09-20T06:39:47.833Z,2.87
2018-09-20T06:42:22.821Z,2.83
2018-09-20T06:44:58.167Z,2.57
2018-09-20T06:47:32.939Z,3.40
2018-09-20T06:50:07.835Z,3.07
2018-09-20T06:52:41.780Z,3.10
2018-09-20T06:55:16.192Z,2.53
2018-09-20T06:57:50.730Z,3.60
2018-09-20T07:00:25.808Z,2.90
2018-09-20T07:03:01.005Z,3.60
2018-09-20T07:05:35.845Z,3.43
2018-09-20T07:08:10.300Z,3.73
2018-09-20T07:10:44.908Z,3.13
2018-09-20T07:13:19.703Z,3.97
2018-09-20T07:15:54.332Z,3.87
2018-09-20T07:18:29.271Z,3.13
2018-09-20T07:21:03.935Z,3.73
2018-09-20T07:23:37.838Z,3.97
2018-09-20T07:26:11.796Z,3.90
2018-09-20T07:28:45.667Z,3.40
2018-09-20T07:31:20.965Z,4.13
2018-09-20T07:33:55.640Z,3.30
2018-09-20T07:36:30.099Z,4.03
2018-09-20T07:39:06.961Z,3.07
2018-09-20T07:41:41.616Z,3.43
2018-09-20T07:44:15.967Z,4.10
2018-09-20T07:46:50.911Z,3.40
2018-09-20T07:49:25.321Z,3.73
2018-09-20T07:51:59.871Z,3.10
2018-09-20T07:54:34.739Z,3.20
2018-09-20T07:57:08.605Z,3.53
2018-09-20T07:59:42.501Z,3.77
2018-09-20T08:02:16.794Z,3.67
2018-09-20T08:04:51.044Z,3.17
2018-09-20T08:07:25.501Z,3.57
2018-09-20T08:09:59.644Z,3.50
2018-09-20T08:12:34.052Z,3.40
2018-09-20T08:15:07.935Z,3.17
2018-09-20T08:17:42.650Z,2.90
2018-09-20T08:20:16.801Z,3.67
2018-09-20T08:22:50.661Z,2.87
2018-09-20T08:25:24.509Z,3.73
2018-09-20T08:28:26.708Z,2.80
2018-09-20T08:31:01.406Z,4.03
2018-09-20T08:33:35.390Z,3.07
2018-09-20T08:36:09.352Z,3.73
2018-09-20T08:38:43.145Z,3.53
2018-09-20T08:41:17.057Z,3.47
2018-09-20T08:43:50.970Z,4.03
2018-09-20T08:46:25.113Z,4.03
2018-09-20T08:48:59.070Z,3.67
2018-09-20T08:51:33.083Z,3.57
2018-09-20T08:54:06.837Z,4.23
2018-09-20T08:56:41.605Z,3.27
2018-09-20T08:59:15.731Z,2.80
2018-09-20T09:01:49.416Z,3.23
2018-09-20T09:04:23.513Z,3.30
2018-09-20T09:06:57.554Z,3.60
2018-09-20T09:09:31.423Z,2.73
2018-09-20T09:12:05.549Z,1.97
2018-09-20T09:14:39.486Z,3.63
2018-09-20T09:17:14.122Z,2.60
2018-09-20T09:19:48.822Z,2.10
2018-09-20T09:22:23.678Z,3.33
2018-09-20T09:24:57.730Z,3.13
2018-09-20T09:27:31.582Z,3.37
2018-09-20T09:30:05.634Z,1.63
2018-09-20T09:32:39.515Z,3.33
2018-09-20T09:35:14.197Z,3.30
2018-09-20T09:37:49.109Z,3.33
2018-09-20T09:40:23.592Z,3.77
2018-09-20T09:42:58.381Z,2.83
2018-09-20T09:45:32.295Z,2.47
2018-09-20T09:48:06.144Z,3.17
2018-09-20T09:50:40.300Z,2.60
2018-09-20T09:53:14.930Z,2.73
2018-09-20T09:55:48.942Z,3.13
2018-09-20T09:58:23.644Z,2.33
2018-09-20T10:00:57.655Z,2.53
2018-09-20T10:03:32.222Z,2.27
2018-09-20T10:06:06.225Z,1.83
2018-09-20T10:08:40.111Z,2.13
2018-09-20T10:11:13.979Z,2.57
2018-09-20T10:13:48.258Z,2.87
2018-09-20T10:16:23.677Z,3.20
2018-09-20T10:18:58.585Z,2.83
2018-09-20T10:21:33.233Z,2.57
2018-09-20T10:24:07.214Z,2.77
2018-09-20T10:26:41.953Z,2.80
2018-09-20T10:29:16.101Z,2.43
2018-09-20T10:31:50.675Z,2.77
2018-09-20T10:34:26.038Z,2.43
2018-09-20T10:36:59.845Z,2.50
2018-09-20T10:39:34.822Z,2.67
2018-09-20T10:42:09.268Z,2.10
2018-09-20T10:44:43.287Z,2.40
2018-09-20T10:47:17.430Z,2.53
2018-09-20T10:49:51.309Z,2.53
2018-09-20T10:52:25.399Z,2.80
2018-09-20T10:55:00.429Z,2.10
2018-09-20T10:57:34.234Z,1.90
2018-09-20T11:00:07.983Z,2.60
2018-09-20T11:02:43.187Z,2.30
2018-09-20T11:05:17.109Z,2.20
2018-09-20T11:07:51.750Z,2.13
2018-09-20T11:10:26.358Z,2.17
2018-09-20T11:13:00.144Z,1.73
2018-09-20T11:15:34.835Z,2.40
2018-09-20T11:18:08.804Z,2.33
2018-09-20T11:20:42.717Z,1.57
2018-09-20T11:23:16.704Z,1.93
2018-09-20T11:25:51.106Z,1.97
2018-09-20T11:28:25.602Z,2.07
2018-09-20T11:31:00.740Z,1.80
2018-09-20T11:33:35.212Z,2.20
2018-09-20T11:36:09.278Z,2.07
2018-09-20T11:38:43.172Z,1.80
2018-09-20T11:41:17.804Z,2.53
2018-09-20T11:43:51.771Z,2.37
2018-09-20T11:46:25.832Z,2.63
2018-09-20T11:48:59.786Z,2.07
2018-09-20T11:51:35.071Z,2.47
2018-09-20T11:54:08.989Z,2.67
2018-09-20T11:56:44.157Z,2.77
2018-09-20T11:59:19.372Z,2.83
2018-09-20T12:01:53.423Z,2.80
2018-09-20T12:04:28.178Z,2.33
2018-09-20T12:07:01.929Z,3.13
2018-09-20T12:09:36.100Z,3.10
2018-09-20T12:12:10.051Z,2.90
2018-09-20T12:14:44.062Z,2.07
2018-09-20T12:17:19.120Z,2.50
2018-09-20T12:19:54.082Z,2.90
2018-09-20T12:22:29.528Z,2.90
2018-09-20T12:25:04.186Z,2.43
2018-09-20T12:27:38.797Z,2.83
2018-09-20T12:30:13.285Z,2.93
2018-09-20T12:32:47.645Z,3.20
2018-09-20T12:35:21.711Z,2.60
2018-09-20T12:37:56.321Z,2.83
2018-09-20T12:40:30.304Z,2.90
2018-09-20T12:43:04.347Z,2.37
2018-09-20T12:45:39.267Z,3.10
2018-09-20T12:48:14.290Z,2.60
2018-09-20T12:50:48.363Z,2.77
2018-09-20T12:53:22.255Z,2.67
2018-09-20T12:55:56.829Z,2.30
2018-09-20T12:58:34.941Z,2.97
2018-09-20T13:01:08.837Z,2.30
2018-09-20T13:03:42.981Z,2.70
2018-09-20T13:06:17.284Z,2.13
2018-09-20T13:08:52.018Z,2.17
2018-09-20T13:11:26.033Z,2.27
2018-09-20T13:14:00.608Z,2.03
2018-09-20T13:16:34.717Z,2.30
2018-09-20T13:19:08.665Z,2.80
2018-09-20T13:21:42.598Z,2.47
2018-09-20T13:24:16.962Z,2.73
2018-09-20T13:26:50.922Z,3.23
2018-09-20T13:29:24.833Z,2.43
2018-09-20T13:31:59.360Z,2.50
2018-09-20T13:34:33.491Z,2.30
2018-09-20T13:37:07.298Z,2.00
2018-09-20T13:39:41.173Z,2.20
2018-09-20T13:42:15.739Z,1.93
2018-09-20T13:44:49.723Z,2.17
2018-09-20T13:47:23.852Z,2.70
2018-09-20T13:49:58.799Z,2.20
2018-09-20T13:52:32.768Z,1.50
2018-09-20T13:55:07.097Z,1.93
2018-09-20T13:57:41.616Z,2.37
2018-09-20T14:00:15.633Z,1.83
2018-09-20T14:02:50.470Z,2.70
2018-09-20T14:05:24.897Z,3.00
2018-09-20T14:07:59.304Z,2.97
2018-09-20T14:10:33.381Z,1.80
2018-09-20T14:13:07.769Z,2.40
2018-09-20T14:15:43.098Z,2.63
2018-09-20T14:18:17.287Z,2.67
2018-09-20T14:20:51.506Z,2.70
2018-09-20T14:23:26.014Z,2.40
2018-09-20T14:26:01.325Z,2.50
2018-09-20T14:28:35.561Z,2.47
2018-09-20T14:31:09.499Z,2.57
2018-09-20T14:33:44.207Z,3.50
2018-09-20T14:36:18.571Z,2.37
2018-09-20T14:38:53.389Z,2.80
2018-09-20T14:41:28.104Z,2.60
2018-09-20T14:44:02.827Z,2.43
2018-09-20T14:46:37.000Z,2.53
2018-09-20T14:49:11.063Z,2.60
2018-09-20T14:51:45.057Z,2.33
2018-09-20T14:54:19.034Z,2.10
2018-09-20T14:56:53.273Z,2.33
2018-09-20T14:59:28.025Z,2.47
2018-09-20T15:02:02.289Z,2.23
2018-09-20T15:04:36.460Z,2.20
2018-09-20T15:07:10.652Z,2.50
2018-09-20T15:09:44.452Z,1.20
2018-09-20T15:12:18.948Z,1.27
2018-09-20T15:14:53.092Z,0.30
2018-09-20T15:17:27.864Z,0.60
2018-09-20T15:20:01.945Z,0.97
2018-09-20T15:22:36.061Z,1.20
2018-09-20T15:25:10.224Z,0.40
2018-09-20T15:27:44.181Z,2.00
2018-09-20T15:30:18.151Z,1.73
2018-09-20T15:32:51.811Z,1.03
2018-09-20T15:35:26.026Z,1.57
2018-09-20T15:38:01.482Z,1.43
2018-09-20T15:40:35.262Z,0.83
2018-09-20T15:43:09.109Z,1.43
2018-09-20T15:45:43.174Z,0.60
2018-09-20T15:48:17.130Z,1.07
2018-09-20T15:50:51.020Z,1.40
2018-09-20T15:53:26.767Z,0.93
2018-09-20T15:56:00.792Z,1.47
2018-09-20T15:58:34.819Z,1.90
2018-09-20T16:01:09.714Z,3.00
2018-09-20T16:03:44.138Z,1.47
2018-09-20T16:06:18.195Z,1.53
2018-09-20T16:08:52.179Z,2.20
2018-09-20T16:11:26.187Z,2.30
2018-09-20T16:14:00.154Z,2.90
2018-09-20T16:16:34.010Z,2.90
2018-09-20T16:19:07.674Z,3.40
2018-09-20T16:21:41.688Z,2.60
2018-09-20T16:24:16.086Z,3.10
2018-09-20T16:26:49.987Z,2.70
2018-09-20T16:29:29.729Z,2.60
2018-09-20T16:32:09.529Z,2.43
2018-09-20T16:34:53.244Z,3.10
2018-09-20T16:37:34.877Z,2.50
2018-09-20T16:40:10.281Z,2.60
2018-09-20T16:42:45.706Z,2.40
2018-09-20T16:45:19.917Z,2.97
2018-09-20T16:47:54.246Z,2.73
2018-09-20T16:50:29.012Z,2.43
2018-09-20T16:53:03.243Z,2.63
2018-09-20T16:55:37.789Z,2.17
2018-09-20T16:58:11.708Z,2.97
2018-09-20T17:00:45.915Z,2.90
2018-09-20T17:03:20.962Z,2.77
2018-09-20T17:05:55.975Z,2.50
2018-09-20T17:08:31.085Z,2.67
2018-09-20T17:11:05.196Z,2.90
2018-09-20T17:13:39.770Z,2.83
2018-09-20T17:16:13.794Z,2.60
2018-09-20T17:18:47.609Z,2.77
2018-09-20T17:21:22.072Z,5.40
2018-09-20T17:23:56.284Z,2.70
2018-09-20T17:26:30.396Z,2.80
2018-09-20T17:29:05.618Z,2.00
2018-09-20T17:31:40.497Z,2.73
2018-09-20T17:34:14.517Z,2.20
2018-09-20T17:36:49.703Z,2.30
2018-09-20T17:39:24.442Z,2.10
2018-09-20T17:41:59.646Z,2.53
2018-09-20T17:44:33.610Z,2.97
2018-09-20T17:47:07.915Z,2.20
2018-09-20T17:49:41.922Z,2.23
2018-09-20T17:52:16.395Z,2.73
2018-09-20T17:54:51.069Z,2.57
2018-09-20T17:57:25.824Z,2.23
2018-09-20T17:59:59.936Z,2.30
2018-09-20T18:02:34.308Z,2.37
2018-09-20T18:05:08.770Z,2.07
2018-09-20T18:07:44.452Z,2.40
2018-09-20T18:10:18.755Z,2.53
2018-09-20T18:12:54.464Z,1.70
2018-09-20T18:15:28.957Z,2.00
2018-09-20T18:18:03.620Z,1.90
2018-09-20T18:20:38.588Z,2.60
2018-09-20T18:23:13.046Z,1.60
2018-09-20T18:25:48.570Z,2.40
2018-09-20T18:28:22.677Z,2.03
2018-09-20T18:30:56.630Z,1.10
2018-09-20T18:33:30.499Z,1.47
2018-09-20T18:36:04.878Z,1.57
2018-09-20T18:38:38.877Z,1.80
2018-09-20T18:41:13.207Z,1.80
2018-09-20T18:43:47.501Z,1.60
2018-09-20T18:46:21.476Z,1.63
2018-09-20T18:48:55.974Z,1.63
2018-09-20T18:51:30.191Z,1.47
2018-09-20T18:54:04.293Z,1.80
2018-09-20T18:56:38.460Z,1.53
2018-09-20T18:59:12.680Z,1.60
2018-09-20T19:01:47.598Z,1.70
2018-09-20T19:04:22.082Z,1.73
2018-09-20T19:06:56.817Z,1.70
2018-09-20T19:09:30.872Z,1.80
2018-09-20T19:12:04.981Z,1.50
2018-09-20T19:14:39.053Z,1.80
2018-09-20T19:17:13.114Z,1.97
2018-09-20T19:19:47.852Z,1.80
2018-09-20T19:22:22.180Z,1.80
2018-09-20T19:24:56.119Z,1.43
2018-09-20T19:27:30.838Z,1.80
2018-09-20T19:30:04.713Z,1.60
2018-09-20T19:32:38.663Z,1.80
2018-09-20T19:35:13.389Z,2.13
2018-09-20T19:37:47.989Z,2.17
2018-09-20T19:40:23.036Z,1.90
2018-09-20T19:42:57.067Z,2.17
2018-09-20T19:45:31.134Z,1.63
2018-09-20T19:48:05.322Z,1.80
2018-09-20T19:50:39.557Z,1.90
2018-09-20T19:53:13.521Z,2.20
2018-09-20T19:55:48.403Z,2.20
2018-09-20T19:58:23.269Z,2.10
2018-09-20T20:00:57.957Z,2.00
2018-09-20T20:03:31.994Z,1.97
2018-09-20T20:06:06.071Z,1.63
2018-09-20T20:08:40.480Z,1.70
2018-09-20T20:11:14.522Z,2.00
2018-09-20T20:13:48.622Z,1.87
2018-09-20T20:16:22.543Z,1.90
2018-09-20T20:18:57.259Z,1.93
2018-09-20T20:21:32.580Z,1.60
2018-09-20T20:24:06.640Z,2.03
2018-09-20T20:26:40.684Z,1.80
2018-09-20T20:29:14.949Z,2.20
2018-09-20T20:31:49.898Z,1.80
2018-09-20T20:34:24.767Z,2.57
2018-09-20T20:36:59.437Z,2.10
2018-09-20T20:39:34.225Z,1.93
2018-09-20T20:42:08.064Z,1.80
2018-09-20T20:44:41.938Z,2.30
2018-09-20T20:47:16.033Z,2.83
2018-09-20T20:49:50.728Z,2.30
2018-09-20T20:52:25.223Z,1.90
2018-09-20T20:54:59.123Z,1.60
2018-09-20T20:57:33.853Z,2.23
2018-09-20T21:00:07.880Z,2.10
2018-09-20T21:02:42.116Z,2.67
2018-09-20T21:05:16.140Z,2.00
2018-09-20T21:07:50.242Z,2.50
2018-09-20T21:10:24.282Z,2.23
2018-09-20T21:12:58.259Z,2.57
2018-09-20T21:15:32.269Z,2.40
2018-09-20T21:18:06.582Z,2.50
2018-09-20T21:20:40.571Z,2.53
2018-09-20T21:23:14.579Z,2.57
2018-09-20T21:25:48.482Z,2.20
2018-09-20T21:28:23.105Z,2.50
2018-09-20T21:30:57.703Z,2.50
2018-09-20T21:33:31.743Z,2.07
2018-09-20T21:36:05.935Z,2.50
2018-09-20T21:38:39.984Z,3.00
2018-09-20T21:41:14.000Z,2.60
2018-09-20T21:43:47.936Z,2.90
2018-09-20T21:46:22.735Z,2.60
2018-09-20T21:48:56.890Z,2.40
2018-09-20T21:51:31.074Z,2.53
2018-09-20T21:54:05.000Z,2.17
2018-09-20T21:56:38.770Z,2.60
2018-09-20T21:59:12.635Z,2.40
2018-09-20T23:30:46.954Z,2.33
2018-09-20T23:52:51.651Z,2.30
2018-09-20T23:56:37.392Z,2.30
